createdAt,value
2023-03-16T00:00:09.921Z,2.10
2023-03-16T00:02:57.937Z,2.50
2023-03-16T00:05:26.019Z,2.00
2023-03-16T00:07:54.051Z,1.80
2023-03-16T00:10:27.445Z,2.10
2023-03-16T00:12:56.733Z,2.00
2023-03-16T00:15:24.824Z,2.00
2023-03-16T00:17:53.237Z,2.10
2023-03-16T00:20:21.295Z,2.60
2023-03-16T00:22:49.285Z,2.00
2023-03-16T00:25:17.640Z,1.90
2023-03-16T00:27:45.787Z,1.90
2023-03-16T00:30:13.972Z,1.90
2023-03-16T00:32:42.132Z,2.10
2023-03-16T00:35:10.947Z,2.00
2023-03-16T00:37:39.824Z,2.10
2023-03-16T00:40:09.713Z,1.90
2023-03-16T00:42:37.896Z,1.80
2023-03-16T00:45:07.424Z,1.90
2023-03-16T00:47:36.365Z,1.80
2023-03-16T00:50:04.860Z,1.80
2023-03-16T00:52:35.427Z,1.80
2023-03-16T00:55:04.948Z,1.80
2023-03-16T00:57:33.091Z,2.00
2023-03-16T01:00:09.166Z,1.80
2023-03-16T01:02:37.185Z,1.90
2023-03-16T01:05:05.827Z,1.80
2023-03-16T01:07:36.532Z,2.00
2023-03-16T01:10:05.785Z,1.90
2023-03-16T01:12:34.072Z,1.70
2023-03-16T01:15:02.429Z,1.80
2023-03-16T01:17:35.097Z,1.90
2023-03-16T01:20:08.151Z,1.70
2023-03-16T01:22:36.354Z,1.90
2023-03-16T01:25:05.786Z,1.90
2023-03-16T01:27:34.021Z,1.90
2023-03-16T01:30:02.399Z,1.90
2023-03-16T01:32:31.553Z,1.70
2023-03-16T01:34:59.812Z,2.00
2023-03-16T01:37:28.053Z,2.10
2023-03-16T01:40:00.429Z,1.90
2023-03-16T01:42:28.647Z,2.10
2023-03-16T01:45:05.716Z,1.90
2023-03-16T01:47:39.887Z,1.70
2023-03-16T01:50:14.360Z,1.80
2023-03-16T01:52:43.816Z,1.80
2023-03-16T01:55:15.761Z,2.10
2023-03-16T01:57:47.393Z,1.80
2023-03-16T02:00:23.623Z,1.80
2023-03-16T02:03:11.851Z,1.90
2023-03-16T02:05:56.466Z,1.60
2023-03-16T02:08:27.587Z,1.80
2023-03-16T02:10:57.121Z,1.90
2023-03-16T02:13:34.021Z,1.80
2023-03-16T02:16:08.924Z,1.80
2023-03-16T02:18:37.505Z,1.80
2023-03-16T02:21:20.153Z,1.60
2023-03-16T02:23:50.894Z,1.70
2023-03-16T02:26:29.770Z,1.90
2023-03-16T02:29:01.292Z,1.90
2023-03-16T02:31:30.439Z,1.90
2023-03-16T02:33:59.246Z,1.90
2023-03-16T02:36:28.263Z,1.90
2023-03-16T02:38:56.341Z,1.90
2023-03-16T02:41:25.239Z,1.90
2023-03-16T02:44:24.457Z,1.80
2023-03-16T02:46:59.705Z,1.90
2023-03-16T02:49:36.067Z,1.90
2023-03-16T02:52:08.167Z,1.80
2023-03-16T02:54:36.283Z,2.10
2023-03-16T02:57:05.052Z,2.10
2023-03-16T02:59:33.418Z,1.80
2023-03-16T03:02:28.205Z,1.70
2023-03-16T03:04:57.121Z,1.80
2023-03-16T03:07:31.898Z,1.70
2023-03-16T03:10:06.164Z,1.60
2023-03-16T03:12:34.785Z,1.70
2023-03-16T03:15:06.003Z,1.70
2023-03-16T03:17:40.139Z,1.70
2023-03-16T03:20:16.306Z,2.00
2023-03-16T03:22:47.279Z,1.90
2023-03-16T03:25:17.319Z,1.90
2023-03-16T03:27:47.583Z,1.90
2023-03-16T03:30:19.910Z,2.00
2023-03-16T03:32:49.399Z,1.90
2023-03-16T03:35:20.557Z,2.00
2023-03-16T03:37:49.380Z,2.00
2023-03-16T03:40:19.910Z,1.70
2023-03-16T03:42:51.591Z,1.80
2023-03-16T03:45:20.762Z,1.80
2023-03-16T03:47:48.993Z,2.10
2023-03-16T03:50:21.177Z,1.90
2023-03-16T03:52:58.046Z,1.90
2023-03-16T03:55:27.007Z,2.00
2023-03-16T03:57:55.164Z,1.90
2023-03-16T04:00:23.371Z,2.00
2023-03-16T04:02:51.656Z,1.80
2023-03-16T04:05:28.501Z,1.70
2023-03-16T04:07:57.762Z,2.00
2023-03-16T04:10:30.676Z,2.00
2023-03-16T04:13:01.058Z,1.90
2023-03-16T04:15:33.251Z,2.10
2023-03-16T04:18:13.008Z,1.70
2023-03-16T04:20:41.581Z,1.80
2023-03-16T04:23:10.178Z,1.80
2023-03-16T04:25:39.248Z,1.80
2023-03-16T04:28:07.460Z,1.80
2023-03-16T04:30:36.734Z,1.90
2023-03-16T04:33:15.835Z,1.80
2023-03-16T04:35:46.473Z,2.10
2023-03-16T04:38:18.354Z,2.00
2023-03-16T04:40:53.442Z,2.00
2023-03-16T04:43:24.572Z,1.80
2023-03-16T04:45:56.311Z,1.80
2023-03-16T04:48:25.931Z,2.20
2023-03-16T04:50:55.078Z,2.50
2023-03-16T04:53:23.189Z,2.30
2023-03-16T04:55:56.120Z,2.30
2023-03-16T04:58:25.794Z,1.70
2023-03-16T05:00:58.373Z,2.30
2023-03-16T05:03:31.079Z,1.60
2023-03-16T05:05:59.689Z,2.00
2023-03-16T05:08:28.320Z,2.10
2023-03-16T05:10:57.765Z,2.10
2023-03-16T05:13:26.277Z,1.90
2023-03-16T05:15:55.231Z,2.00
2023-03-16T05:18:28.193Z,1.90
2023-03-16T05:20:57.246Z,1.90
2023-03-16T05:23:27.469Z,1.90
2023-03-16T05:26:01.196Z,2.20
2023-03-16T05:28:31.210Z,2.30
2023-03-16T05:31:06.046Z,2.50
2023-03-16T05:33:39.833Z,2.20
2023-03-16T05:36:11.256Z,2.10
2023-03-16T05:38:39.899Z,2.00
2023-03-16T05:41:10.525Z,2.10
2023-03-16T05:44:11.396Z,2.20
2023-03-16T05:46:53.677Z,2.20
2023-03-16T05:49:22.251Z,2.40
2023-03-16T05:51:51.086Z,2.40
2023-03-16T05:54:19.362Z,2.60
2023-03-16T05:56:47.576Z,2.60
2023-03-16T05:59:18.849Z,2.50
2023-03-16T06:01:52.502Z,2.20
2023-03-16T06:04:22.031Z,3.30
2023-03-16T06:06:51.789Z,2.50
2023-03-16T06:09:26.980Z,2.50
2023-03-16T06:11:55.640Z,2.80
2023-03-16T06:14:24.983Z,2.80
2023-03-16T06:16:53.929Z,2.90
2023-03-16T06:19:24.076Z,2.60
2023-03-16T06:21:56.134Z,2.60
2023-03-16T06:24:25.357Z,2.80
2023-03-16T06:26:53.536Z,2.30
2023-03-16T06:29:22.969Z,2.20
2023-03-16T06:31:52.747Z,2.40
2023-03-16T06:34:21.265Z,2.60
2023-03-16T06:36:49.283Z,2.50
2023-03-16T06:40:17.884Z,2.40
2023-03-16T06:44:27.202Z,2.70
2023-03-16T06:47:55.520Z,2.60
2023-03-16T06:50:24.826Z,2.70
2023-03-16T06:52:52.926Z,2.50
2023-03-16T06:55:50.096Z,2.20
2023-03-16T06:58:19.232Z,2.60
2023-03-16T07:00:48.554Z,4.50
2023-03-16T07:03:21.238Z,2.10
2023-03-16T07:06:13.517Z,2.20
2023-03-16T07:08:44.917Z,2.60
2023-03-16T07:11:14.957Z,2.70
2023-03-16T07:13:44.578Z,2.50
2023-03-16T07:16:13.595Z,2.30
2023-03-16T07:18:44.541Z,2.70
2023-03-16T07:21:17.238Z,2.90
2023-03-16T07:24:46.674Z,2.70
2023-03-16T07:27:17.207Z,3.30
2023-03-16T07:29:46.556Z,2.30
2023-03-16T07:32:18.315Z,2.70
2023-03-16T07:34:58.130Z,2.60
2023-03-16T07:37:27.880Z,2.60
2023-03-16T07:39:57.754Z,2.40
2023-03-16T07:42:27.250Z,2.50
2023-03-16T07:45:07.972Z,2.90
2023-03-16T07:48:18.357Z,2.30
2023-03-16T07:51:32.968Z,2.30
2023-03-16T07:54:30.163Z,2.60
2023-03-16T07:58:02.300Z,2.70
2023-03-16T08:01:51.979Z,2.50
2023-03-16T08:05:21.473Z,2.90
2023-03-16T08:07:54.115Z,4.40
2023-03-16T08:11:16.114Z,2.70
2023-03-16T08:14:43.468Z,2.80
2023-03-16T08:17:45.253Z,2.90
2023-03-16T08:21:02.109Z,3.10
2023-03-16T08:24:18.449Z,2.90
2023-03-16T08:26:47.609Z,2.70
2023-03-16T08:29:18.806Z,3.10
2023-03-16T08:31:47.140Z,2.60
2023-03-16T08:34:23.807Z,2.90
2023-03-16T08:36:52.528Z,2.80
2023-03-16T08:39:20.631Z,2.80
2023-03-16T08:41:49.073Z,4.00
2023-03-16T08:44:28.386Z,2.60
2023-03-16T08:47:20.889Z,3.10
2023-03-16T08:50:10.012Z,3.20
2023-03-16T08:52:38.486Z,3.10
2023-03-16T08:55:09.799Z,3.20
2023-03-16T08:57:39.868Z,2.70
2023-03-16T09:00:15.922Z,3.30
2023-03-16T09:02:44.849Z,2.80
2023-03-16T09:05:15.002Z,2.90
2023-03-16T09:08:23.710Z,3.30
2023-03-16T09:11:07.591Z,3.00
2023-03-16T09:13:40.435Z,3.90
2023-03-16T09:16:10.149Z,3.40
2023-03-16T09:18:38.792Z,2.80
2023-03-16T09:21:10.440Z,3.00
2023-03-16T09:23:38.732Z,3.00
2023-03-16T09:26:07.627Z,2.40
2023-03-16T09:28:39.058Z,2.90
2023-03-16T09:31:08.251Z,2.80
2023-03-16T09:33:37.034Z,2.90
2023-03-16T09:36:06.100Z,2.80
2023-03-16T09:38:34.405Z,3.70
2023-03-16T09:41:16.503Z,3.00
2023-03-16T09:43:58.390Z,3.20
2023-03-16T09:46:27.143Z,3.30
2023-03-16T09:48:57.961Z,2.50
2023-03-16T09:51:38.770Z,3.00
2023-03-16T09:54:19.320Z,2.90
2023-03-16T09:56:54.703Z,3.00
2023-03-16T09:59:45.161Z,2.40
2023-03-16T10:03:20.485Z,2.40
2023-03-16T10:05:57.424Z,3.50
2023-03-16T10:08:55.358Z,2.90
2023-03-16T10:11:36.687Z,3.10
2023-03-16T10:14:26.057Z,3.20
2023-03-16T10:17:43.162Z,2.90
2023-03-16T10:20:17.564Z,3.70
2023-03-16T10:22:48.097Z,3.40
2023-03-16T10:25:19.715Z,3.10
2023-03-16T10:28:48.461Z,3.50
2023-03-16T10:32:52.336Z,3.60
2023-03-16T10:36:29.190Z,4.30
2023-03-16T10:40:38.732Z,3.50
2023-03-16T10:44:30.375Z,3.50
2023-03-16T10:46:58.830Z,3.40
2023-03-16T10:49:29.991Z,3.30
2023-03-16T10:52:25.064Z,5.10
2023-03-16T10:56:09.358Z,4.90
2023-03-16T11:00:20.510Z,4.10
2023-03-16T11:04:29.747Z,4.00
2023-03-16T11:06:59.194Z,4.20
2023-03-16T11:13:37.904Z,4.50
2023-03-16T11:16:31.214Z,4.70
2023-03-16T11:19:21.183Z,5.40
2023-03-16T11:22:42.393Z,4.50
2023-03-16T11:25:26.992Z,4.70
2023-03-16T11:28:26.963Z,4.80
2023-03-16T11:32:45.608Z,4.80
2023-03-16T11:35:33.437Z,5.20
2023-03-16T11:43:54.660Z,5.00
2023-03-16T11:48:36.323Z,5.60
2023-03-16T11:52:19.317Z,5.30
2023-03-16T11:54:55.684Z,6.40
2023-03-16T11:57:57.074Z,6.40
2023-03-16T12:00:34.099Z,6.40
2023-03-16T12:03:50.749Z,6.20
2023-03-16T12:06:44.068Z,5.60
2023-03-16T12:09:32.369Z,6.00
2023-03-16T12:12:24.972Z,6.80
2023-03-16T12:14:58.849Z,6.50
2023-03-16T12:17:53.621Z,5.80
2023-03-16T12:20:26.938Z,6.10
2023-03-16T12:23:27.290Z,6.20
2023-03-16T12:25:59.935Z,5.90
2023-03-16T12:28:30.186Z,5.80
2023-03-16T12:32:05.393Z,6.10
2023-03-16T12:36:37.506Z,5.40
2023-03-16T12:41:18.068Z,6.00
2023-03-16T12:45:08.746Z,6.30
2023-03-16T12:47:51.002Z,5.80
2023-03-16T12:51:35.802Z,6.00
2023-03-16T12:56:07.570Z,5.70
2023-03-16T13:00:39.527Z,5.20
2023-03-16T13:04:51.905Z,4.80
2023-03-16T13:09:04.961Z,5.30
2023-03-16T13:13:30.632Z,5.90
2023-03-16T13:17:32.395Z,5.00
2023-03-16T13:21:28.245Z,5.60
2023-03-16T13:25:39.929Z,6.80
2023-03-16T13:29:56.248Z,5.50
2023-03-16T13:33:20.636Z,6.10
2023-03-16T13:36:14.405Z,6.40
2023-03-16T13:39:19.204Z,5.80
2023-03-16T13:42:22.296Z,6.50
2023-03-16T13:45:17.278Z,6.20
2023-03-16T13:48:56.192Z,7.40
2023-03-16T13:52:12.647Z,6.90
2023-03-16T13:55:18.490Z,8.60
2023-03-16T13:58:20.741Z,6.40
2023-03-16T14:01:26.093Z,6.00
2023-03-16T14:04:24.270Z,5.30
2023-03-16T14:07:21.893Z,6.50
2023-03-16T14:10:19.268Z,6.40
2023-03-16T14:13:31.032Z,7.70
2023-03-16T14:16:28.417Z,7.80
2023-03-16T14:19:34.592Z,7.20
2023-03-16T14:22:53.563Z,8.20
2023-03-16T14:25:56.711Z,8.70
2023-03-16T14:29:23.244Z,8.70
2023-03-16T14:32:42.484Z,9.20
2023-03-16T14:36:01.555Z,9.00
2023-03-16T14:39:16.881Z,10.30
2023-03-16T14:42:39.886Z,10.80
2023-03-16T14:45:40.370Z,9.80
2023-03-16T14:48:36.727Z,9.00
2023-03-16T14:51:35.449Z,9.70
2023-03-16T14:55:08.076Z,9.30
2023-03-16T14:58:22.435Z,9.20
2023-03-16T15:01:28.730Z,8.60
2023-03-16T15:04:53.294Z,8.70
2023-03-16T15:08:11.578Z,8.60
2023-03-16T15:11:24.795Z,9.00
2023-03-16T15:15:35.730Z,9.90
2023-03-16T15:19:29.868Z,9.30
2023-03-16T15:22:58.906Z,9.20
2023-03-16T15:26:52.246Z,9.10
2023-03-16T15:29:47.300Z,8.50
2023-03-16T15:32:56.859Z,9.10
2023-03-16T15:35:52.638Z,12.00
2023-03-16T15:38:49.226Z,12.30
2023-03-16T15:42:43.693Z,10.50
2023-03-16T15:47:15.897Z,10.70
2023-03-16T15:51:35.784Z,9.90
2023-03-16T15:54:29.539Z,9.00
2023-03-16T15:57:21.095Z,9.60
2023-03-16T16:00:28.033Z,8.60
2023-03-16T16:03:41.990Z,8.90
2023-03-16T16:07:35.080Z,9.10
2023-03-16T16:11:16.942Z,9.20
2023-03-16T16:14:23.027Z,7.80
2023-03-16T16:18:21.498Z,8.80
2023-03-16T16:22:19.814Z,9.70
2023-03-16T16:26:16.909Z,10.30
2023-03-16T16:31:02.213Z,9.60
2023-03-16T16:35:34.782Z,8.40
2023-03-16T16:39:17.118Z,8.70
2023-03-16T16:42:30.727Z,8.00
2023-03-16T16:45:54.649Z,11.10
2023-03-16T16:49:28.541Z,10.90
2023-03-16T16:52:22.294Z,9.60
2023-03-16T16:55:51.579Z,10.10
2023-03-16T17:00:24.877Z,8.80
2023-03-16T17:04:57.506Z,9.60
2023-03-16T17:08:31.723Z,9.40
2023-03-16T17:11:27.124Z,21.80
2023-03-16T17:14:22.593Z,9.90
2023-03-16T17:17:19.701Z,9.90
2023-03-16T17:20:30.268Z,9.80
2023-03-16T17:23:51.138Z,10.40
2023-03-16T17:26:47.001Z,11.50
2023-03-16T17:29:43.443Z,9.90
2023-03-16T17:32:35.948Z,10.30
2023-03-16T17:36:28.325Z,10.20
2023-03-16T17:41:03.713Z,10.30
2023-03-16T17:45:18.818Z,10.20
2023-03-16T17:49:36.105Z,10.00
2023-03-16T17:53:30.204Z,10.30
2023-03-16T17:57:24.360Z,9.80
2023-03-16T18:01:23.076Z,9.50
2023-03-16T18:05:36.035Z,9.60
2023-03-16T18:09:47.171Z,10.10
2023-03-16T18:13:30.890Z,8.90
2023-03-16T18:16:30.046Z,8.70
2023-03-16T18:19:25.433Z,8.60
2023-03-16T18:22:20.295Z,9.30
2023-03-16T18:25:33.204Z,8.80
2023-03-16T18:28:27.512Z,8.40
2023-03-16T18:31:28.680Z,9.60
2023-03-16T18:34:24.047Z,8.70
2023-03-16T18:37:28.766Z,7.50
2023-03-16T18:40:26.686Z,9.40
2023-03-16T18:43:36.921Z,7.90
2023-03-16T18:46:54.975Z,7.00
2023-03-16T18:50:07.912Z,8.20
2023-03-16T18:53:01.240Z,7.40
2023-03-16T18:56:05.124Z,7.40
2023-03-16T18:59:10.109Z,8.60
2023-03-16T19:02:06.067Z,7.80
2023-03-16T19:05:30.127Z,8.10
2023-03-16T19:08:42.744Z,8.70
2023-03-16T19:11:49.065Z,7.90
2023-03-16T19:14:48.238Z,8.10
2023-03-16T19:17:46.496Z,7.40
2023-03-16T19:21:08.064Z,8.10
2023-03-16T19:24:06.168Z,8.00
2023-03-16T19:27:59.494Z,8.10
2023-03-16T19:32:11.787Z,8.00
2023-03-16T19:36:04.289Z,7.70
2023-03-16T19:40:16.618Z,7.40
2023-03-16T19:43:32.559Z,7.70
2023-03-16T19:46:47.826Z,8.00
2023-03-16T19:49:51.632Z,8.40
2023-03-16T19:52:48.058Z,7.80
2023-03-16T19:55:52.292Z,7.70
2023-03-16T19:59:12.032Z,8.10
2023-03-16T20:03:36.652Z,7.90
2023-03-16T20:07:43.374Z,8.50
2023-03-16T20:11:39.266Z,9.00
2023-03-16T20:15:16.514Z,8.60
2023-03-16T20:18:35.044Z,8.60
2023-03-16T20:22:30.404Z,8.40
2023-03-16T20:26:22.216Z,8.50
2023-03-16T20:30:06.513Z,9.40
2023-03-16T20:33:23.375Z,9.60
2023-03-16T20:36:49.638Z,8.70
2023-03-16T20:40:09.958Z,8.90
2023-03-16T20:43:15.886Z,9.20
2023-03-16T20:47:15.845Z,8.80
2023-03-16T20:50:55.992Z,8.70
2023-03-16T20:53:56.712Z,9.00
2023-03-16T20:56:51.874Z,9.70
2023-03-16T21:00:05.469Z,9.20
2023-03-16T21:03:02.523Z,9.40
2023-03-16T21:06:31.855Z,8.30
2023-03-16T21:09:30.038Z,8.50
2023-03-16T21:12:37.049Z,8.90
2023-03-16T21:15:38.065Z,8.40
2023-03-16T21:18:51.532Z,9.20
2023-03-16T21:21:47.962Z,8.50
2023-03-16T21:24:44.792Z,8.90
2023-03-16T21:27:39.830Z,8.30
2023-03-16T21:30:37.500Z,8.40
2023-03-16T21:33:44.125Z,9.00
2023-03-16T21:36:41.336Z,8.40
2023-03-16T21:39:36.403Z,8.90
2023-03-16T21:42:28.424Z,10.00
2023-03-16T21:45:22.060Z,9.20
2023-03-16T21:48:20.475Z,9.20
2023-03-16T21:51:19.592Z,10.10
2023-03-16T21:54:15.718Z,9.30
2023-03-16T21:57:15.896Z,9.40
2023-03-16T22:00:11.047Z,9.50
2023-03-16T22:03:04.357Z,9.20
2023-03-16T22:05:58.021Z,9.20
2023-03-16T22:08:51.555Z,9.60
2023-03-16T22:11:44.079Z,9.80
2023-03-16T22:14:36.864Z,9.50
2023-03-16T22:17:29.334Z,8.70
2023-03-16T22:20:27.222Z,9.10
2023-03-16T22:23:34.797Z,9.00
2023-03-16T22:26:28.772Z,9.40
2023-03-16T22:29:29.802Z,8.50
2023-03-16T22:32:23.024Z,8.70
2023-03-16T22:35:35.737Z,9.20
2023-03-16T22:38:27.545Z,9.00
2023-03-16T22:41:21.087Z,7.70
2023-03-16T22:44:22.406Z,9.20
2023-03-16T22:47:26.605Z,8.20
2023-03-16T22:50:20.613Z,8.60
2023-03-16T22:53:18.278Z,7.60
2023-03-16T22:56:11.055Z,8.40
2023-03-16T22:59:11.558Z,8.20
2023-03-16T23:02:03.689Z,7.90
2023-03-16T23:04:56.579Z,8.40
2023-03-16T23:07:48.904Z,7.30
2023-03-16T23:10:42.325Z,8.00
2023-03-16T23:13:34.500Z,7.80
2023-03-16T23:16:34.735Z,7.70
2023-03-16T23:19:34.125Z,7.90
2023-03-16T23:22:27.389Z,8.50
2023-03-16T23:25:20.681Z,8.50
2023-03-16T23:28:18.158Z,7.90
2023-03-16T23:34:19.345Z,8.40
2023-03-16T23:37:12.062Z,8.50
2023-03-16T23:40:04.753Z,8.70
2023-03-16T23:43:00.852Z,8.50
2023-03-16T23:45:52.973Z,8.70
2023-03-16T23:48:49.385Z,8.30
2023-03-16T23:51:41.585Z,8.20
2023-03-16T23:54:34.111Z,10.30
2023-03-16T23:57:27.414Z,8.40
